createdAt,value
2023-05-10T00:00:51.978Z,94420.00
2023-05-10T00:01:51.991Z,94422.00
2023-05-10T00:02:52.169Z,94420.00
2023-05-10T00:03:52.013Z,94420.00
2023-05-10T00:04:51.966Z,94418.00
2023-05-10T00:05:51.952Z,94420.00
2023-05-10T00:06:51.964Z,94420.00
2023-05-10T00:07:51.986Z,94420.00
2023-05-10T00:08:51.990Z,94422.00
2023-05-10T00:09:51.974Z,94420.00
2023-05-10T00:10:51.969Z,94420.00
2023-05-10T00:11:51.989Z,94420.00
2023-05-10T00:12:52.050Z,94422.00
2023-05-10T00:13:51.965Z,94422.00
2023-05-10T00:14:51.994Z,94422.00
2023-05-10T00:15:51.972Z,94418.00
2023-05-10T00:16:52.112Z,94416.00
2023-05-10T00:17:52.056Z,94416.00
2023-05-10T00:18:51.989Z,94418.00
2023-05-10T00:19:51.953Z,94416.00
2023-05-10T00:20:51.958Z,94420.00
2023-05-10T00:21:51.941Z,94420.00
2023-05-10T00:22:51.948Z,94418.00
2023-05-10T00:23:51.968Z,94420.00
2023-05-10T00:24:51.966Z,94422.00
2023-05-10T00:25:51.959Z,94424.00
2023-05-10T00:26:51.956Z,94422.00
2023-05-10T00:27:51.954Z,94422.00
2023-05-10T00:28:51.933Z,94422.00
2023-05-10T00:29:51.949Z,94424.00
2023-05-10T00:30:51.938Z,94422.00
2023-05-10T00:31:51.999Z,94424.00
2023-05-10T00:32:52.021Z,94422.00
2023-05-10T00:33:51.944Z,94424.00
2023-05-10T00:34:51.926Z,94426.00
2023-05-10T00:35:51.944Z,94426.00
2023-05-10T00:36:51.946Z,94424.00
2023-05-10T00:37:51.921Z,94426.00
2023-05-10T00:38:51.932Z,94426.00
2023-05-10T00:39:51.919Z,94430.00
2023-05-10T00:40:51.931Z,94430.00
2023-05-10T00:41:51.961Z,94432.00
2023-05-10T00:42:51.963Z,94428.00
2023-05-10T00:43:51.932Z,94430.00
2023-05-10T00:44:51.897Z,94432.00
2023-05-10T00:45:51.983Z,94434.00
2023-05-10T00:46:51.930Z,94432.00
2023-05-10T00:47:51.942Z,94434.00
2023-05-10T00:48:51.908Z,94432.00
2023-05-10T00:49:51.905Z,94432.00
2023-05-10T00:50:51.873Z,94434.00
2023-05-10T00:51:51.881Z,94434.00
2023-05-10T00:52:51.892Z,94428.00
2023-05-10T00:53:51.879Z,94430.00
2023-05-10T00:54:51.881Z,94432.00
2023-05-10T00:55:51.865Z,94430.00
2023-05-10T00:56:51.855Z,94434.00
2023-05-10T00:57:51.867Z,94432.00
2023-05-10T00:58:51.870Z,94432.00
2023-05-10T00:59:51.851Z,94436.00
2023-05-10T01:00:51.841Z,94434.00
2023-05-10T01:01:51.826Z,94432.00
2023-05-10T01:02:51.943Z,94438.00
2023-05-10T01:03:51.778Z,94436.00
2023-05-10T01:04:51.832Z,94434.00
2023-05-10T01:05:51.794Z,94434.00
2023-05-10T01:06:51.769Z,94434.00
2023-05-10T01:07:51.801Z,94434.00
2023-05-10T01:08:51.766Z,94434.00
2023-05-10T01:09:51.767Z,94432.00
2023-05-10T01:10:51.752Z,94432.00
2023-05-10T01:11:51.732Z,94434.00
2023-05-10T01:12:51.780Z,94432.00
2023-05-10T01:13:51.719Z,94436.00
2023-05-10T01:14:51.729Z,94434.00
2023-05-10T01:15:51.774Z,94436.00
2023-05-10T01:16:51.778Z,94434.00
2023-05-10T01:17:52.036Z,94430.00
2023-05-10T01:18:51.668Z,94434.00
2023-05-10T01:19:51.695Z,94432.00
2023-05-10T01:20:51.674Z,94430.00
2023-05-10T01:21:51.700Z,94432.00
2023-05-10T01:22:51.693Z,94434.00
2023-05-10T01:23:51.678Z,94428.00
2023-05-10T01:24:51.696Z,94434.00
2023-05-10T01:25:51.677Z,94430.00
2023-05-10T01:26:51.652Z,94432.00
2023-05-10T01:27:51.658Z,94428.00
2023-05-10T01:28:51.663Z,94426.00
2023-05-10T01:30:05.085Z,94430.00
2023-05-10T01:30:52.596Z,94428.00
2023-05-10T01:31:51.602Z,94428.00
2023-05-10T01:32:51.659Z,94430.00
2023-05-10T01:33:51.487Z,94428.00
2023-05-10T01:34:51.475Z,94426.00
2023-05-10T01:35:51.449Z,94428.00
2023-05-10T01:36:51.379Z,94426.00
2023-05-10T01:37:51.350Z,94428.00
2023-05-10T01:38:51.292Z,94426.00
2023-05-10T01:39:51.271Z,94426.00
2023-05-10T01:40:51.202Z,94426.00
2023-05-10T01:41:51.190Z,94428.00
2023-05-10T01:42:51.153Z,94428.00
2023-05-10T01:43:51.188Z,94428.00
2023-05-10T01:44:51.188Z,94430.00
2023-05-10T01:45:51.206Z,94430.00
2023-05-10T01:46:51.264Z,94428.00
2023-05-10T01:47:51.212Z,94428.00
2023-05-10T01:48:51.229Z,94428.00
2023-05-10T01:49:51.204Z,94430.00
2023-05-10T01:50:51.225Z,94432.00
2023-05-10T01:51:51.236Z,94432.00
2023-05-10T01:52:51.272Z,94432.00
2023-05-10T01:53:51.283Z,94432.00
2023-05-10T01:54:51.307Z,94436.00
2023-05-10T01:55:51.310Z,94434.00
2023-05-10T01:56:51.335Z,94434.00
2023-05-10T01:57:51.300Z,94436.00
2023-05-10T01:58:51.331Z,94440.00
2023-05-10T01:59:51.332Z,94440.00
2023-05-10T02:00:51.369Z,94440.00
2023-05-10T02:01:51.368Z,94442.00
2023-05-10T02:02:51.470Z,94444.00
2023-05-10T02:03:51.446Z,94444.00
2023-05-10T02:04:51.452Z,94446.00
2023-05-10T02:05:51.475Z,94449.00
2023-05-10T02:06:51.471Z,94448.00
2023-05-10T02:07:51.516Z,94448.00
2023-05-10T02:08:51.487Z,94449.00
2023-05-10T02:09:51.497Z,94448.00
2023-05-10T02:10:51.469Z,94451.00
2023-05-10T02:11:51.482Z,94453.00
2023-05-10T02:12:51.551Z,94455.00
2023-05-10T02:13:51.521Z,94453.00
2023-05-10T02:14:51.528Z,94459.00
2023-05-10T02:15:51.563Z,94459.00
2023-05-10T02:16:51.651Z,94459.00
2023-05-10T02:17:51.647Z,94457.00
2023-05-10T02:18:51.637Z,94459.00
2023-05-10T02:19:51.618Z,94461.00
2023-05-10T02:20:51.623Z,94457.00
2023-05-10T02:21:51.640Z,94461.00
2023-05-10T02:22:51.711Z,94461.00
2023-05-10T02:23:51.679Z,94461.00
2023-05-10T02:24:51.670Z,94463.00
2023-05-10T02:25:51.709Z,94461.00
2023-05-10T02:26:51.685Z,94465.00
2023-05-10T02:27:51.707Z,94465.00
2023-05-10T02:28:51.737Z,94465.00
2023-05-10T02:29:51.706Z,94465.00
2023-05-10T02:30:51.718Z,94465.00
2023-05-10T02:31:51.769Z,94467.00
2023-05-10T02:32:51.861Z,94465.00
2023-05-10T02:33:51.791Z,94467.00
2023-05-10T02:34:51.808Z,94467.00
2023-05-10T02:35:51.864Z,94469.00
2023-05-10T02:36:51.841Z,94469.00
2023-05-10T02:37:51.902Z,94469.00
2023-05-10T02:38:51.918Z,94469.00
2023-05-10T02:39:51.922Z,94469.00
2023-05-10T02:40:51.942Z,94469.00
2023-05-10T02:41:51.935Z,94469.00
2023-05-10T02:42:51.969Z,94469.00
2023-05-10T02:43:51.939Z,94469.00
2023-05-10T02:44:51.964Z,94471.00
2023-05-10T02:45:52.059Z,94469.00
2023-05-10T02:46:51.984Z,94471.00
2023-05-10T02:47:52.037Z,94473.00
2023-05-10T02:48:51.969Z,94473.00
2023-05-10T02:49:51.952Z,94471.00
2023-05-10T02:50:51.957Z,94473.00
2023-05-10T02:51:52.004Z,94473.00
2023-05-10T02:52:51.959Z,94471.00
2023-05-10T02:53:51.969Z,94469.00
2023-05-10T02:54:51.977Z,94473.00
2023-05-10T02:55:51.942Z,94473.00
2023-05-10T02:56:51.979Z,94471.00
2023-05-10T02:57:51.964Z,94471.00
2023-05-10T02:58:51.985Z,94473.00
2023-05-10T02:59:51.945Z,94471.00
2023-05-10T03:00:51.990Z,94471.00
2023-05-10T03:01:52.042Z,94473.00
2023-05-10T03:02:52.139Z,94473.00
2023-05-10T03:03:52.000Z,94475.00
2023-05-10T03:04:52.118Z,94473.00
2023-05-10T03:05:52.015Z,94475.00
2023-05-10T03:06:52.027Z,94473.00
2023-05-10T03:07:52.039Z,94473.00
2023-05-10T03:08:52.045Z,94471.00
2023-05-10T03:09:52.077Z,94471.00
2023-05-10T03:10:52.107Z,94473.00
2023-05-10T03:11:52.106Z,94471.00
2023-05-10T03:12:52.144Z,94469.00
2023-05-10T03:13:52.140Z,94471.00
2023-05-10T03:14:52.119Z,94467.00
2023-05-10T03:15:52.173Z,94471.00
2023-05-10T03:16:52.155Z,94471.00
2023-05-10T03:17:52.203Z,94469.00
2023-05-10T03:18:52.172Z,94471.00
2023-05-10T03:19:52.196Z,94471.00
2023-05-10T03:20:52.213Z,94473.00
2023-05-10T03:21:52.221Z,94471.00
2023-05-10T03:22:52.218Z,94473.00
2023-05-10T03:23:52.217Z,94473.00
2023-05-10T03:24:52.218Z,94475.00
2023-05-10T03:25:52.260Z,94477.00
2023-05-10T03:26:52.280Z,94477.00
2023-05-10T03:27:52.315Z,94481.00
2023-05-10T03:28:52.331Z,94479.00
2023-05-10T03:29:52.320Z,94477.00
2023-05-10T03:30:52.311Z,94479.00
2023-05-10T03:31:52.458Z,94481.00
2023-05-10T03:32:52.420Z,94481.00
2023-05-10T03:33:52.365Z,94485.00
2023-05-10T03:34:52.389Z,94483.00
2023-05-10T03:35:52.426Z,94485.00
2023-05-10T03:36:52.399Z,94487.00
2023-05-10T03:37:52.438Z,94489.00
2023-05-10T03:38:52.405Z,94487.00
2023-05-10T03:39:52.453Z,94485.00
2023-05-10T03:40:52.444Z,94487.00
2023-05-10T03:41:52.561Z,94491.00
2023-05-10T03:42:52.497Z,94491.00
2023-05-10T03:43:52.458Z,94493.00
2023-05-10T03:44:52.479Z,94493.00
2023-05-10T03:45:52.495Z,94493.00
2023-05-10T03:46:52.569Z,94496.00
2023-05-10T03:47:52.568Z,94496.00
2023-05-10T03:48:52.562Z,94498.00
2023-05-10T03:49:52.577Z,94498.00
2023-05-10T03:50:52.596Z,94495.00
2023-05-10T03:51:52.603Z,94495.00
2023-05-10T03:52:54.110Z,94495.00
2023-05-10T03:53:52.623Z,94496.00
2023-05-10T03:54:52.617Z,94498.00
2023-05-10T03:55:52.633Z,94496.00
2023-05-10T03:56:52.648Z,94500.00
2023-05-10T03:57:52.669Z,94500.00
2023-05-10T03:58:52.655Z,94500.00
2023-05-10T03:59:52.712Z,94502.00
2023-05-10T04:00:52.622Z,94500.00
2023-05-10T04:01:52.719Z,94500.00
2023-05-10T04:02:52.767Z,94502.00
2023-05-10T04:03:52.763Z,94500.00
2023-05-10T04:04:52.644Z,94500.00
2023-05-10T04:05:52.739Z,94500.00
2023-05-10T04:06:52.627Z,94498.00
2023-05-10T04:07:52.621Z,94498.00
2023-05-10T04:08:52.625Z,94496.00
2023-05-10T04:09:52.644Z,94496.00
2023-05-10T04:10:52.617Z,94498.00
2023-05-10T04:11:52.600Z,94500.00
2023-05-10T04:12:52.696Z,94500.00
2023-05-10T04:13:52.595Z,94502.00
2023-05-10T04:14:52.602Z,94500.00
2023-05-10T04:15:52.583Z,94500.00
2023-05-10T04:16:52.576Z,94500.00
2023-05-10T04:17:52.597Z,94500.00
2023-05-10T04:18:52.611Z,94498.00
2023-05-10T04:19:52.611Z,94500.00
2023-05-10T04:20:52.596Z,94498.00
2023-05-10T04:21:52.570Z,94500.00
2023-05-10T04:22:52.577Z,94502.00
2023-05-10T04:23:52.616Z,94504.00
2023-05-10T04:24:52.621Z,94500.00
2023-05-10T04:25:52.633Z,94504.00
2023-05-10T04:26:52.636Z,94504.00
2023-05-10T04:27:52.661Z,94504.00
2023-05-10T04:28:52.654Z,94504.00
2023-05-10T04:29:52.627Z,94506.00
2023-05-10T04:30:52.716Z,94506.00
2023-05-10T04:31:52.645Z,94506.00
2023-05-10T04:32:52.699Z,94504.00
2023-05-10T04:33:52.682Z,94504.00
2023-05-10T04:34:52.705Z,94504.00
2023-05-10T04:35:52.745Z,94502.00
2023-05-10T04:36:52.736Z,94504.00
2023-05-10T04:37:52.752Z,94506.00
2023-05-10T04:38:52.800Z,94506.00
2023-05-10T04:39:52.773Z,94502.00
2023-05-10T04:40:52.807Z,94504.00
2023-05-10T04:41:52.921Z,94504.00
2023-05-10T04:42:52.815Z,94506.00
2023-05-10T04:43:52.826Z,94508.00
2023-05-10T04:44:52.847Z,94506.00
2023-05-10T04:45:52.884Z,94508.00
2023-05-10T04:46:52.833Z,94508.00
2023-05-10T04:47:53.024Z,94508.00
2023-05-10T04:48:52.878Z,94512.00
2023-05-10T04:49:52.876Z,94510.00
2023-05-10T04:50:52.877Z,94510.00
2023-05-10T04:51:52.899Z,94510.00
2023-05-10T04:52:53.353Z,94512.00
2023-05-10T04:54:05.159Z,94510.00
2023-05-10T04:54:53.864Z,94512.00
2023-05-10T04:55:52.856Z,94512.00
2023-05-10T04:56:52.816Z,94512.00
2023-05-10T04:57:52.797Z,94514.00
2023-05-10T04:58:52.726Z,94512.00
2023-05-10T04:59:52.710Z,94516.00
2023-05-10T05:01:01.106Z,94516.00
2023-05-10T05:01:52.752Z,94516.00
2023-05-10T05:02:52.865Z,94518.00
2023-05-10T05:03:52.881Z,94518.00
2023-05-10T05:04:52.809Z,94518.00
2023-05-10T05:05:52.801Z,94520.00
2023-05-10T05:06:53.914Z,94524.00
2023-05-10T05:07:52.793Z,94522.00
2023-05-10T05:08:52.834Z,94528.00
2023-05-10T05:09:52.831Z,94528.00
2023-05-10T05:10:52.853Z,94526.00
2023-05-10T05:11:52.845Z,94530.00
2023-05-10T05:12:52.908Z,94530.00
2023-05-10T05:13:52.870Z,94532.00
2023-05-10T05:14:52.872Z,94532.00
2023-05-10T05:15:52.847Z,94532.00
2023-05-10T05:16:52.912Z,94530.00
2023-05-10T05:17:52.913Z,94532.00
2023-05-10T05:18:52.857Z,94534.00
2023-05-10T05:19:52.876Z,94534.00
2023-05-10T05:20:52.927Z,94538.00
2023-05-10T05:21:52.924Z,94536.00
2023-05-10T05:22:52.900Z,94538.00
2023-05-10T05:23:52.933Z,94540.00
2023-05-10T05:24:52.902Z,94540.00
2023-05-10T05:25:52.892Z,94540.00
2023-05-10T05:26:52.930Z,94542.00
2023-05-10T05:27:52.884Z,94540.00
2023-05-10T05:28:52.882Z,94542.00
2023-05-10T05:29:52.845Z,94544.00
2023-05-10T05:30:52.900Z,94540.00
2023-05-10T05:31:55.336Z,94548.00
2023-05-10T05:32:53.114Z,94546.00
2023-05-10T05:33:53.603Z,94546.00
2023-05-10T05:34:53.167Z,94548.00
2023-05-10T05:35:53.170Z,94546.00
2023-05-10T05:36:53.172Z,94548.00
2023-05-10T05:37:53.171Z,94544.00
2023-05-10T05:38:53.602Z,94550.00
2023-05-10T05:39:53.377Z,94548.00
2023-05-10T05:40:53.264Z,94550.00
2023-05-10T05:41:53.271Z,94548.00
2023-05-10T05:42:53.230Z,94550.00
2023-05-10T05:43:53.600Z,94548.00
2023-05-10T05:44:53.298Z,94553.00
2023-05-10T05:46:00.350Z,94551.00
2023-05-10T05:46:53.350Z,94550.00
2023-05-10T05:47:53.339Z,94551.00
2023-05-10T05:48:53.636Z,94550.00
2023-05-10T05:49:53.126Z,94553.00
2023-05-10T05:50:53.129Z,94555.00
2023-05-10T05:51:53.108Z,94553.00
2023-05-10T05:52:53.057Z,94555.00
2023-05-10T05:53:53.106Z,94553.00
2023-05-10T05:54:53.017Z,94555.00
2023-05-10T05:55:52.972Z,94553.00
2023-05-10T05:56:52.928Z,94553.00
2023-05-10T05:57:52.909Z,94553.00
2023-05-10T05:58:53.177Z,94551.00
2023-05-10T05:59:52.852Z,94553.00
2023-05-10T06:00:52.833Z,94553.00
2023-05-10T06:01:52.791Z,94553.00
2023-05-10T06:02:52.817Z,94553.00
2023-05-10T06:03:53.546Z,94551.00
2023-05-10T06:04:52.725Z,94551.00
2023-05-10T06:05:52.686Z,94553.00
2023-05-10T06:06:52.650Z,94553.00
2023-05-10T06:07:52.737Z,94551.00
2023-05-10T06:08:52.623Z,94553.00
2023-05-10T06:09:52.623Z,94555.00
2023-05-10T06:10:52.581Z,94557.00
2023-05-10T06:11:52.533Z,94555.00
2023-05-10T06:12:52.540Z,94559.00
2023-05-10T06:13:52.534Z,94555.00
2023-05-10T06:14:52.548Z,94555.00
2023-05-10T06:15:52.557Z,94555.00
2023-05-10T06:16:52.688Z,94557.00
2023-05-10T06:17:52.568Z,94559.00
2023-05-10T06:18:52.526Z,94561.00
2023-05-10T06:19:52.623Z,94561.00
2023-05-10T06:20:52.528Z,94565.00
2023-05-10T06:21:53.842Z,94567.00
2023-05-10T06:22:52.513Z,94565.00
2023-05-10T06:23:52.497Z,94569.00
2023-05-10T06:24:52.502Z,94569.00
2023-05-10T06:25:52.489Z,94571.00
2023-05-10T06:26:52.448Z,94569.00
2023-05-10T06:27:53.977Z,94569.00
2023-05-10T06:28:52.469Z,94573.00
2023-05-10T06:30:02.198Z,94569.00
2023-05-10T06:30:53.428Z,94571.00
2023-05-10T06:31:52.507Z,94569.00
2023-05-10T06:32:52.386Z,94569.00
2023-05-10T06:33:53.290Z,94569.00
2023-05-10T06:34:52.294Z,94569.00
2023-05-10T06:35:52.277Z,94567.00
2023-05-10T06:36:52.226Z,94569.00
2023-05-10T06:37:52.215Z,94571.00
2023-05-10T06:38:52.313Z,94569.00
2023-05-10T06:39:52.189Z,94569.00
2023-05-10T06:40:52.122Z,94573.00
2023-05-10T06:41:52.110Z,94573.00
2023-05-10T06:42:52.108Z,94573.00
2023-05-10T06:43:52.082Z,94577.00
2023-05-10T06:44:52.072Z,94575.00
2023-05-10T06:45:52.061Z,94575.00
2023-05-10T06:46:52.039Z,94575.00
2023-05-10T06:47:52.017Z,94575.00
2023-05-10T06:48:51.995Z,94577.00
2023-05-10T06:49:52.157Z,94573.00
2023-05-10T06:50:51.981Z,94571.00
2023-05-10T06:51:51.919Z,94573.00
2023-05-10T06:52:53.191Z,94571.00
2023-05-10T06:53:51.931Z,94571.00
2023-05-10T06:54:51.932Z,94571.00
2023-05-10T06:55:51.904Z,94573.00
2023-05-10T06:56:51.948Z,94571.00
2023-05-10T06:57:51.927Z,94571.00
2023-05-10T06:58:51.923Z,94567.00
2023-05-10T06:59:51.917Z,94569.00
2023-05-10T07:00:51.941Z,94569.00
2023-05-10T07:01:51.889Z,94571.00
2023-05-10T07:02:51.902Z,94569.00
2023-05-10T07:03:51.893Z,94571.00
2023-05-10T07:04:51.935Z,94571.00
2023-05-10T07:05:51.915Z,94569.00
2023-05-10T07:06:51.906Z,94569.00
2023-05-10T07:07:51.866Z,94569.00
2023-05-10T07:08:51.880Z,94571.00
2023-05-10T07:09:51.896Z,94571.00
2023-05-10T07:10:51.906Z,94571.00
2023-05-10T07:11:51.893Z,94571.00
2023-05-10T07:12:51.943Z,94573.00
2023-05-10T07:13:51.898Z,94573.00
2023-05-10T07:14:52.147Z,94571.00
2023-05-10T07:15:51.897Z,94571.00
2023-05-10T07:16:51.867Z,94569.00
2023-05-10T07:17:51.927Z,94571.00
2023-05-10T07:18:51.887Z,94573.00
2023-05-10T07:19:51.849Z,94569.00
2023-05-10T07:20:51.889Z,94569.00
2023-05-10T07:21:51.883Z,94573.00
2023-05-10T07:22:51.869Z,94573.00
2023-05-10T07:23:51.882Z,94573.00
2023-05-10T07:24:51.809Z,94573.00
2023-05-10T07:25:51.790Z,94577.00
2023-05-10T07:26:51.782Z,94575.00
2023-05-10T07:27:51.846Z,94575.00
2023-05-10T07:28:51.763Z,94577.00
2023-05-10T07:29:52.157Z,94575.00
2023-05-10T07:30:51.796Z,94577.00
2023-05-10T07:31:51.738Z,94577.00
2023-05-10T07:32:51.766Z,94573.00
2023-05-10T07:33:51.753Z,94575.00
2023-05-10T07:34:51.698Z,94573.00
2023-05-10T07:35:51.689Z,94571.00
2023-05-10T07:36:51.699Z,94571.00
2023-05-10T07:37:51.732Z,94573.00
2023-05-10T07:38:51.707Z,94571.00
2023-05-10T07:39:51.707Z,94571.00
2023-05-10T07:40:51.686Z,94573.00
2023-05-10T07:41:51.666Z,94575.00
2023-05-10T07:42:51.640Z,94571.00
2023-05-10T07:43:51.654Z,94573.00
2023-05-10T07:44:51.640Z,94575.00
2023-05-10T07:45:52.280Z,94573.00
2023-05-10T07:46:51.766Z,94575.00
2023-05-10T07:47:51.682Z,94579.00
2023-05-10T07:48:51.669Z,94583.00
2023-05-10T07:49:51.661Z,94585.00
2023-05-10T07:50:51.693Z,94587.00
2023-05-10T07:51:51.698Z,94583.00
2023-05-10T07:52:51.685Z,94585.00
2023-05-10T07:53:51.706Z,94589.00
2023-05-10T07:54:51.724Z,94589.00
2023-05-10T07:55:51.682Z,94591.00
2023-05-10T07:56:51.692Z,94591.00
2023-05-10T07:57:51.738Z,94591.00
2023-05-10T07:58:51.727Z,94589.00
2023-05-10T07:59:51.706Z,94589.00
2023-05-10T08:00:51.693Z,94587.00
2023-05-10T08:01:51.732Z,94591.00
2023-05-10T08:02:51.848Z,94589.00
2023-05-10T08:03:51.722Z,94589.00
2023-05-10T08:04:51.682Z,94589.00
2023-05-10T08:05:51.734Z,94587.00
2023-05-10T08:06:51.744Z,94591.00
2023-05-10T08:07:51.759Z,94589.00
2023-05-10T08:08:51.807Z,94589.00
2023-05-10T08:09:51.770Z,94593.00
2023-05-10T08:10:52.146Z,94591.00
2023-05-10T08:11:51.789Z,94593.00
2023-05-10T08:12:51.787Z,94589.00
2023-05-10T08:13:51.756Z,94593.00
2023-05-10T08:14:51.813Z,94593.00
2023-05-10T08:15:52.202Z,94595.00
2023-05-10T08:16:51.811Z,94595.00
2023-05-10T08:17:51.849Z,94595.00
2023-05-10T08:18:51.972Z,94597.00
2023-05-10T08:19:51.834Z,94597.00
2023-05-10T08:20:51.848Z,94597.00
2023-05-10T08:21:51.860Z,94595.00
2023-05-10T08:22:52.077Z,94598.00
2023-05-10T08:23:51.868Z,94597.00
2023-05-10T08:24:51.858Z,94597.00
2023-05-10T08:25:51.932Z,94598.00
2023-05-10T08:26:51.942Z,94598.00
2023-05-10T08:27:51.920Z,94598.00
2023-05-10T08:28:52.020Z,94600.00
2023-05-10T08:29:52.005Z,94598.00
2023-05-10T08:30:52.217Z,94597.00
2023-05-10T08:31:52.132Z,94600.00
2023-05-10T08:32:52.046Z,94598.00
2023-05-10T08:33:51.987Z,94602.00
2023-05-10T08:34:52.007Z,94604.00
2023-05-10T08:35:52.188Z,94606.00
2023-05-10T08:36:51.988Z,94608.00
2023-05-10T08:37:51.999Z,94608.00
2023-05-10T08:38:52.181Z,94608.00
2023-05-10T08:39:52.050Z,94612.00
2023-05-10T08:40:52.170Z,94610.00
2023-05-10T08:41:52.001Z,94610.00
2023-05-10T08:42:52.019Z,94612.00
2023-05-10T08:43:52.069Z,94610.00
2023-05-10T08:44:52.033Z,94614.00
2023-05-10T08:45:52.410Z,94612.00
2023-05-10T08:46:52.067Z,94614.00
2023-05-10T08:47:52.059Z,94614.00
2023-05-10T08:48:52.035Z,94614.00
2023-05-10T08:49:52.025Z,94618.00
2023-05-10T08:50:52.179Z,94616.00
2023-05-10T08:51:52.098Z,94618.00
2023-05-10T08:52:52.058Z,94618.00
2023-05-10T08:53:52.027Z,94620.00
2023-05-10T08:54:52.076Z,94618.00
2023-05-10T08:55:52.036Z,94622.00
2023-05-10T08:56:52.052Z,94622.00
2023-05-10T08:57:52.086Z,94624.00
2023-05-10T08:58:52.092Z,94624.00
2023-05-10T08:59:52.059Z,94628.00
2023-05-10T09:00:52.259Z,94636.00
2023-05-10T09:01:52.054Z,94636.00
2023-05-10T09:02:52.163Z,94638.00
2023-05-10T09:03:52.234Z,94638.00
2023-05-10T09:04:52.266Z,94638.00
2023-05-10T09:05:52.182Z,94638.00
2023-05-10T09:06:52.078Z,94640.00
2023-05-10T09:07:52.055Z,94636.00
2023-05-10T09:08:52.065Z,94640.00
2023-05-10T09:09:52.060Z,94640.00
2023-05-10T09:10:52.171Z,94642.00
2023-05-10T09:11:52.081Z,94642.00
2023-05-10T09:12:52.110Z,94640.00
2023-05-10T09:13:52.184Z,94640.00
2023-05-10T09:14:52.108Z,94638.00
2023-05-10T09:15:52.159Z,94640.00
2023-05-10T09:16:52.160Z,94638.00
2023-05-10T09:17:52.160Z,94642.00
2023-05-10T09:18:52.188Z,94640.00
2023-05-10T09:19:52.230Z,94642.00
2023-05-10T09:20:52.710Z,94643.00
2023-05-10T09:21:52.273Z,94645.00
2023-05-10T09:22:52.284Z,94645.00
2023-05-10T09:23:52.251Z,94643.00
2023-05-10T09:24:52.286Z,94643.00
2023-05-10T09:25:52.324Z,94647.00
2023-05-10T09:26:52.350Z,94647.00
2023-05-10T09:27:52.341Z,94643.00
2023-05-10T09:28:52.314Z,94647.00
2023-05-10T09:29:52.358Z,94649.00
2023-05-10T09:30:52.763Z,94649.00
2023-05-10T09:31:52.351Z,94651.00
2023-05-10T09:32:52.400Z,94649.00
2023-05-10T09:33:52.358Z,94647.00
2023-05-10T09:34:52.377Z,94649.00
2023-05-10T09:35:52.383Z,94643.00
2023-05-10T09:36:52.399Z,94645.00
2023-05-10T09:37:52.391Z,94645.00
2023-05-10T09:38:52.409Z,94645.00
2023-05-10T09:39:52.395Z,94643.00
2023-05-10T09:40:52.684Z,94643.00
2023-05-10T09:41:52.417Z,94643.00
2023-05-10T09:42:52.463Z,94643.00
2023-05-10T09:43:52.472Z,94640.00
2023-05-10T09:44:52.446Z,94640.00
2023-05-10T09:45:52.500Z,94638.00
2023-05-10T09:46:52.484Z,94640.00
2023-05-10T09:47:52.496Z,94640.00
2023-05-10T09:48:52.486Z,94638.00
2023-05-10T09:49:52.475Z,94638.00
2023-05-10T09:50:52.740Z,94640.00
2023-05-10T09:51:52.497Z,94642.00
2023-05-10T09:52:52.480Z,94640.00
2023-05-10T09:53:52.513Z,94638.00
2023-05-10T09:54:53.451Z,94640.00
2023-05-10T09:55:52.418Z,94642.00
2023-05-10T09:56:52.698Z,94640.00
2023-05-10T09:57:52.353Z,94640.00
2023-05-10T09:58:52.311Z,94640.00
2023-05-10T09:59:52.320Z,94642.00
2023-05-10T10:00:52.262Z,94642.00
2023-05-10T10:01:52.318Z,94642.00
2023-05-10T10:02:52.210Z,94640.00
2023-05-10T10:03:52.168Z,94640.00
2023-05-10T10:04:52.155Z,94643.00
2023-05-10T10:05:52.159Z,94640.00
2023-05-10T10:06:52.164Z,94642.00
2023-05-10T10:07:52.177Z,94643.00
2023-05-10T10:08:52.190Z,94643.00
2023-05-10T10:09:52.223Z,94642.00
2023-05-10T10:10:52.295Z,94642.00
2023-05-10T10:11:52.755Z,94645.00
2023-05-10T10:12:52.298Z,94642.00
2023-05-10T10:13:52.242Z,94645.00
2023-05-10T10:14:52.247Z,94640.00
2023-05-10T10:15:52.382Z,94643.00
2023-05-10T10:17:05.546Z,94640.00
2023-05-10T10:17:53.297Z,94642.00
2023-05-10T10:18:52.265Z,94643.00
2023-05-10T10:19:52.264Z,94642.00
2023-05-10T10:20:52.279Z,94645.00
2023-05-10T10:21:52.329Z,94645.00
2023-05-10T10:22:52.283Z,94649.00
2023-05-10T10:23:52.279Z,94645.00
2023-05-10T10:24:52.297Z,94647.00
2023-05-10T10:25:52.345Z,94647.00
2023-05-10T10:26:52.314Z,94649.00
2023-05-10T10:27:52.293Z,94653.00
2023-05-10T10:28:52.282Z,94649.00
2023-05-10T10:29:52.301Z,94649.00
2023-05-10T10:30:52.299Z,94649.00
2023-05-10T10:31:52.355Z,94647.00
2023-05-10T10:32:52.273Z,94651.00
2023-05-10T10:33:52.321Z,94647.00
2023-05-10T10:34:52.298Z,94645.00
2023-05-10T10:35:52.301Z,94647.00
2023-05-10T10:36:52.712Z,94643.00
2023-05-10T10:37:52.358Z,94647.00
2023-05-10T10:38:52.350Z,94645.00
2023-05-10T10:39:52.356Z,94645.00
2023-05-10T10:40:52.371Z,94647.00
2023-05-10T10:41:52.717Z,94647.00
2023-05-10T10:42:52.376Z,94647.00
2023-05-10T10:43:52.405Z,94643.00
2023-05-10T10:44:52.425Z,94643.00
2023-05-10T10:45:52.464Z,94647.00
2023-05-10T10:46:52.873Z,94645.00
2023-05-10T10:47:52.555Z,94645.00
2023-05-10T10:48:52.657Z,94647.00
2023-05-10T10:49:52.596Z,94645.00
2023-05-10T10:50:52.595Z,94647.00
2023-05-10T10:51:52.610Z,94647.00
2023-05-10T10:52:52.682Z,94645.00
2023-05-10T10:53:52.716Z,94645.00
2023-05-10T10:54:52.725Z,94645.00
2023-05-10T10:55:52.713Z,94645.00
2023-05-10T10:56:52.746Z,94643.00
2023-05-10T10:57:52.807Z,94643.00
2023-05-10T10:58:52.798Z,94643.00
2023-05-10T10:59:52.760Z,94642.00
2023-05-10T11:00:52.835Z,94643.00
2023-05-10T11:01:52.882Z,94642.00
2023-05-10T11:02:52.917Z,94643.00
2023-05-10T11:03:52.955Z,94640.00
2023-05-10T11:04:52.977Z,94640.00
2023-05-10T11:05:52.998Z,94642.00
2023-05-10T11:06:53.262Z,94642.00
2023-05-10T11:07:53.035Z,94642.00
2023-05-10T11:08:53.099Z,94640.00
2023-05-10T11:09:53.099Z,94640.00
2023-05-10T11:10:53.213Z,94640.00
2023-05-10T11:11:53.130Z,94628.00
2023-05-10T11:12:53.220Z,94636.00
2023-05-10T11:13:53.286Z,94626.00
2023-05-10T11:14:53.311Z,94626.00
2023-05-10T11:15:53.280Z,94628.00
2023-05-10T11:16:53.399Z,94628.00
2023-05-10T11:17:53.373Z,94628.00
2023-05-10T11:18:53.436Z,94626.00
2023-05-10T11:19:53.422Z,94622.00
2023-05-10T11:20:53.410Z,94626.00
2023-05-10T11:21:53.470Z,94628.00
2023-05-10T11:22:53.471Z,94636.00
2023-05-10T11:23:53.517Z,94624.00
2023-05-10T11:24:53.560Z,94624.00
2023-05-10T11:25:53.432Z,94626.00
2023-05-10T11:26:53.428Z,94624.00
2023-05-10T11:27:53.751Z,94626.00
2023-05-10T11:28:53.448Z,94626.00
2023-05-10T11:29:53.418Z,94624.00
2023-05-10T11:30:53.534Z,94624.00
2023-05-10T11:31:53.694Z,94636.00
2023-05-10T11:32:53.775Z,94626.00
2023-05-10T11:33:54.247Z,94626.00
2023-05-10T11:34:53.385Z,94628.00
2023-05-10T11:35:53.462Z,94624.00
2023-05-10T11:36:53.940Z,94628.00
2023-05-10T11:37:53.764Z,94626.00
2023-05-10T11:38:53.370Z,94626.00
2023-05-10T11:39:54.239Z,94626.00
2023-05-10T11:40:53.382Z,94624.00
2023-05-10T11:41:53.392Z,94626.00
2023-05-10T11:42:53.390Z,94628.00
2023-05-10T11:43:53.414Z,94626.00
2023-05-10T11:44:53.402Z,94624.00